createdAt,value
2022-12-26T00:04:50.930Z,82.09
2022-12-26T00:09:44.902Z,82.24
2022-12-26T00:14:46.283Z,81.58
2022-12-26T00:19:47.707Z,81.97
2022-12-26T00:24:49.051Z,81.74
2022-12-26T00:29:50.438Z,81.62
2022-12-26T00:34:51.759Z,81.44
2022-12-26T00:39:53.105Z,80.87
2022-12-26T00:44:54.493Z,80.97
2022-12-26T00:50:12.389Z,80.77
2022-12-26T00:55:15.872Z,80.79
2022-12-26T01:00:17.324Z,80.57
2022-12-26T01:05:18.752Z,80.66
2022-12-26T01:10:20.168Z,80.90
2022-12-26T01:15:21.548Z,80.80
2022-12-26T01:20:23.051Z,80.74
2022-12-26T01:25:24.469Z,80.40
2022-12-26T01:30:25.755Z,80.83
2022-12-26T01:35:27.105Z,80.46
2022-12-26T01:40:28.418Z,80.34
2022-12-26T01:45:31.386Z,79.77
2022-12-26T01:50:44.900Z,80.32
2022-12-26T01:55:51.904Z,79.93
2022-12-26T02:00:54.463Z,79.60
2022-12-26T02:05:58.918Z,79.65
2022-12-26T02:11:07.853Z,79.24
2022-12-26T02:16:13.446Z,79.58
2022-12-26T02:21:41.365Z,79.35
2022-12-26T02:27:04.549Z,79.23
2022-12-26T02:32:19.779Z,79.10
2022-12-26T02:37:40.001Z,79.47
2022-12-26T02:42:47.368Z,79.88
2022-12-26T02:48:10.048Z,80.14
2022-12-26T02:53:49.481Z,79.96
2022-12-26T02:59:54.207Z,79.99
2022-12-26T03:05:07.631Z,80.01
2022-12-26T03:10:38.704Z,79.95
2022-12-26T03:16:11.826Z,79.70
2022-12-26T03:21:16.570Z,79.76
2022-12-26T03:26:40.203Z,79.29
2022-12-26T03:31:41.567Z,79.21
2022-12-26T03:37:00.969Z,79.29
2022-12-26T03:42:31.781Z,79.09
2022-12-26T03:48:03.835Z,79.06
2022-12-26T03:53:36.374Z,79.05
2022-12-26T03:59:05.242Z,79.08
2022-12-26T04:04:29.590Z,79.00
2022-12-26T04:10:03.610Z,79.11
2022-12-26T04:15:43.414Z,79.10
2022-12-26T04:21:06.657Z,79.30
2022-12-26T04:26:33.529Z,79.44
2022-12-26T04:32:06.709Z,79.92
2022-12-26T04:37:36.583Z,80.34
2022-12-26T04:43:00.150Z,80.24
2022-12-26T04:48:20.529Z,80.08
2022-12-26T04:53:22.035Z,80.00
2022-12-26T04:58:24.309Z,79.82
2022-12-26T05:03:44.410Z,80.03
2022-12-26T05:09:05.911Z,79.83
2022-12-26T05:14:07.297Z,80.20
2022-12-26T05:19:36.861Z,80.19
2022-12-26T05:24:59.340Z,80.30
2022-12-26T05:30:01.212Z,80.07
2022-12-26T05:35:02.567Z,79.73
2022-12-26T05:40:04.352Z,79.40
2022-12-26T05:45:06.371Z,79.32
2022-12-26T05:50:08.362Z,79.13
2022-12-26T05:55:09.922Z,79.11
2022-12-26T06:00:11.912Z,79.12
2022-12-26T06:05:13.364Z,78.95
2022-12-26T06:10:14.777Z,78.99
2022-12-26T06:15:16.285Z,78.92
2022-12-26T06:20:17.599Z,78.66
2022-12-26T06:25:18.875Z,78.60
2022-12-26T06:30:20.247Z,78.25
2022-12-26T06:35:22.447Z,78.41
2022-12-26T06:40:23.750Z,78.44
2022-12-26T06:45:25.090Z,78.39
2022-12-26T06:50:27.034Z,78.39
2022-12-26T06:55:28.488Z,78.34
2022-12-26T07:00:30.335Z,78.24
2022-12-26T07:05:31.783Z,78.58
2022-12-26T07:10:37.051Z,78.43
2022-12-26T07:15:38.352Z,78.73
2022-12-26T07:20:39.734Z,78.50
2022-12-26T07:25:41.059Z,78.93
2022-12-26T07:30:50.018Z,78.87
2022-12-26T07:35:51.341Z,79.32
2022-12-26T07:40:56.206Z,79.68
2022-12-26T07:45:57.758Z,82.95
2022-12-26T07:51:01.989Z,85.56
2022-12-26T07:56:03.975Z,87.40
2022-12-26T08:01:06.880Z,89.58
2022-12-26T08:06:11.836Z,91.40
2022-12-26T08:11:20.196Z,93.31
2022-12-26T08:16:21.603Z,93.09
2022-12-26T08:21:23.137Z,93.72
2022-12-26T08:26:24.573Z,94.25
2022-12-26T08:36:32.293Z,94.36
2022-12-26T08:41:33.680Z,94.94
2022-12-26T08:46:36.900Z,94.89
2022-12-26T08:51:39.518Z,95.42
2022-12-26T08:56:41.302Z,95.51
2022-12-26T09:01:42.817Z,95.38
2022-12-26T09:06:44.223Z,96.31
2022-12-26T09:11:45.603Z,96.68
2022-12-26T09:16:51.089Z,96.12
2022-12-26T09:22:12.680Z,96.12
2022-12-26T09:27:14.071Z,96.48
2022-12-26T09:32:15.447Z,96.63
2022-12-26T09:37:16.859Z,96.00
2022-12-26T09:42:43.328Z,95.87
2022-12-26T09:48:06.600Z,96.06
2022-12-26T09:53:18.517Z,96.30
2022-12-26T09:58:48.824Z,95.76
2022-12-26T10:03:59.032Z,95.79
2022-12-26T10:09:25.469Z,94.82
2022-12-26T10:15:04.384Z,94.60
2022-12-26T10:20:25.655Z,94.56
2022-12-26T10:25:37.674Z,94.10
2022-12-26T10:30:42.504Z,93.65
2022-12-26T10:35:45.770Z,93.48
2022-12-26T10:40:50.385Z,93.47
2022-12-26T10:45:57.831Z,92.95
2022-12-26T10:50:59.381Z,92.88
2022-12-26T10:56:01.793Z,92.51
2022-12-26T11:01:28.274Z,92.30
2022-12-26T11:06:38.096Z,91.79
2022-12-26T11:11:48.419Z,91.55
2022-12-26T11:16:50.223Z,90.32
2022-12-26T11:21:51.602Z,90.16
2022-12-26T11:27:13.050Z,89.75
2022-12-26T11:32:20.188Z,88.98
2022-12-26T11:37:28.548Z,88.41
2022-12-26T11:42:30.169Z,87.75
2022-12-26T11:47:31.751Z,87.23
2022-12-26T11:52:48.119Z,86.97
2022-12-26T11:58:10.461Z,87.38
2022-12-26T12:03:31.126Z,87.41
2022-12-26T12:08:38.455Z,88.17
2022-12-26T12:13:52.978Z,87.39
2022-12-26T12:19:38.835Z,87.85
2022-12-26T12:25:16.291Z,87.84
2022-12-26T12:30:24.446Z,87.96
2022-12-26T12:35:42.126Z,88.70
2022-12-26T12:41:06.389Z,89.37
2022-12-26T12:46:27.991Z,89.81
2022-12-26T12:52:00.151Z,89.52
2022-12-26T12:57:04.577Z,89.39
2022-12-26T13:02:38.341Z,89.69
2022-12-26T13:07:47.227Z,90.11
2022-12-26T13:12:51.389Z,90.09
2022-12-26T13:18:14.337Z,89.86
2022-12-26T13:23:52.291Z,89.27
2022-12-26T13:29:02.477Z,89.13
2022-12-26T13:34:07.545Z,88.12
2022-12-26T13:39:11.925Z,86.72
2022-12-26T13:44:19.846Z,86.41
2022-12-26T13:49:40.615Z,85.07
2022-12-26T13:54:48.838Z,84.51
2022-12-26T14:00:01.301Z,84.78
2022-12-26T14:05:18.856Z,86.37
2022-12-26T14:10:40.315Z,88.73
2022-12-26T14:15:56.386Z,89.04
2022-12-26T14:21:20.494Z,90.93
2022-12-26T14:26:42.318Z,91.62
2022-12-26T14:31:56.601Z,93.59
2022-12-26T14:37:12.858Z,94.81
2022-12-26T14:42:42.225Z,95.28
2022-12-26T14:47:46.580Z,95.79
2022-12-26T14:52:49.000Z,96.41
2022-12-26T14:57:50.686Z,95.87
2022-12-26T15:02:58.299Z,94.42
2022-12-26T15:08:17.027Z,93.80
2022-12-26T15:13:36.267Z,95.34
2022-12-26T15:19:06.667Z,92.90
2022-12-26T15:24:13.790Z,92.00
2022-12-26T15:29:41.373Z,91.09
2022-12-26T15:35:04.417Z,89.18
2022-12-26T15:40:14.970Z,85.24
2022-12-26T15:45:35.899Z,84.84
2022-12-26T15:50:48.265Z,85.94
2022-12-26T15:56:07.664Z,85.85
2022-12-26T16:01:10.894Z,86.13
2022-12-26T16:06:44.694Z,85.81
2022-12-26T16:11:57.141Z,82.68
2022-12-26T16:17:13.545Z,83.34
2022-12-26T16:22:46.318Z,83.17
2022-12-26T16:27:51.336Z,83.89
2022-12-26T16:32:53.729Z,84.38
2022-12-26T16:37:58.059Z,86.12
2022-12-26T16:43:24.055Z,87.91
2022-12-26T16:48:28.023Z,86.59
2022-12-26T16:53:35.493Z,88.94
2022-12-26T16:58:37.950Z,88.99
2022-12-26T17:03:39.358Z,89.97
2022-12-26T17:08:47.359Z,90.93
2022-12-26T17:13:52.760Z,90.19
2022-12-26T17:18:56.733Z,89.44
2022-12-26T17:24:07.424Z,89.53
2022-12-26T17:29:48.086Z,87.99
2022-12-26T17:34:49.719Z,88.88
2022-12-26T17:39:59.011Z,88.40
2022-12-26T17:45:04.187Z,87.67
2022-12-26T17:50:05.780Z,89.00
2022-12-26T17:55:16.203Z,88.70
2022-12-26T18:00:20.632Z,88.53
2022-12-26T18:05:22.433Z,88.96
2022-12-26T18:10:29.021Z,88.77
2022-12-26T18:15:31.158Z,87.32
2022-12-26T18:20:32.757Z,87.55
2022-12-26T18:25:34.188Z,87.22
2022-12-26T18:30:35.617Z,87.58
2022-12-26T18:35:42.219Z,86.78
2022-12-26T18:40:47.073Z,86.86
2022-12-26T18:45:48.736Z,90.44
2022-12-26T18:50:50.352Z,90.06
2022-12-26T18:55:51.735Z,90.26
2022-12-26T19:00:53.233Z,90.03
2022-12-26T19:05:54.575Z,92.56
2022-12-26T19:10:56.110Z,93.15
2022-12-26T19:15:59.962Z,89.64
2022-12-26T19:21:01.713Z,85.22
2022-12-26T19:26:09.314Z,85.56
2022-12-26T19:31:15.163Z,84.76
2022-12-26T19:36:17.196Z,84.33
2022-12-26T19:41:18.666Z,82.83
2022-12-26T19:46:20.112Z,81.69
2022-12-26T19:51:22.424Z,80.94
2022-12-26T19:56:26.147Z,83.42
2022-12-26T20:01:30.696Z,81.85
2022-12-26T20:06:35.000Z,82.51
2022-12-26T20:11:39.907Z,81.10
2022-12-26T20:22:03.108Z,82.49
2022-12-26T20:27:04.612Z,80.74
2022-12-26T20:32:06.095Z,83.52
2022-12-26T20:37:07.460Z,80.13
2022-12-26T20:42:08.868Z,82.10
2022-12-26T20:47:10.273Z,79.96
2022-12-26T20:52:11.752Z,78.70
2022-12-26T20:57:13.136Z,77.90
2022-12-26T21:02:14.665Z,77.62
2022-12-26T21:07:16.291Z,75.55
2022-12-26T21:12:17.884Z,74.30
2022-12-26T21:17:19.692Z,73.37
2022-12-26T21:22:21.227Z,72.05
2022-12-26T21:27:22.721Z,72.69
2022-12-26T21:32:24.098Z,70.84
2022-12-26T21:37:44.251Z,71.35
2022-12-26T21:42:46.194Z,70.10
2022-12-26T21:47:47.539Z,69.15
2022-12-26T21:52:48.820Z,68.64
2022-12-26T21:57:50.159Z,68.30
2022-12-26T22:03:10.343Z,67.21
2022-12-26T22:08:11.830Z,69.54
2022-12-26T22:13:13.296Z,69.26
2022-12-26T22:18:14.693Z,66.50
2022-12-26T22:23:16.096Z,67.49
2022-12-26T22:28:23.023Z,66.75
2022-12-26T22:33:25.106Z,69.88
2022-12-26T22:38:27.885Z,67.88
2022-12-26T22:43:29.654Z,68.06
2022-12-26T22:48:31.140Z,68.49
2022-12-26T22:53:32.563Z,66.96
2022-12-26T22:58:34.288Z,65.93
2022-12-26T23:03:35.767Z,67.27
2022-12-26T23:08:37.336Z,65.28
2022-12-26T23:13:39.059Z,62.08
2022-12-26T23:19:04.267Z,66.79
2022-12-26T23:24:06.335Z,63.55
2022-12-26T23:29:29.133Z,63.28
2022-12-26T23:34:31.282Z,62.89
2022-12-26T23:39:32.590Z,62.96
2022-12-26T23:44:34.055Z,64.83
2022-12-26T23:49:35.467Z,66.62
2022-12-26T23:54:36.986Z,64.90
2022-12-26T23:59:38.355Z,66.03
